sensor_id;sensor_type;location;lat;lon;timestamp;P1;durP1;ratioP1;P2;durP2;ratioP2
32872;SDS011;19224;52.462;16.898;2022-12-13T00:02:02;9.53;;;5.70;;
32872;SDS011;19224;52.462;16.898;2022-12-13T00:04:32;11.03;;;6.10;;
32872;SDS011;19224;52.462;16.898;2022-12-13T00:07:03;10.53;;;6.17;;
32872;SDS011;19224;52.462;16.898;2022-12-13T00:09:33;10.37;;;6.03;;
32872;SDS011;19224;52.462;16.898;2022-12-13T00:12:04;11.63;;;6.37;;
32872;SDS011;19224;52.462;16.898;2022-12-13T00:14:35;11.33;;;6.47;;
32872;SDS011;19224;52.462;16.898;2022-12-13T00:17:05;10.27;;;6.20;;
32872;SDS011;19224;52.462;16.898;2022-12-13T00:19:36;10.97;;;6.10;;
32872;SDS011;19224;52.462;16.898;2022-12-13T00:22:06;13.47;;;6.33;;
32872;SDS011;19224;52.462;16.898;2022-12-13T00:24:37;10.67;;;5.93;;
32872;SDS011;19224;52.462;16.898;2022-12-13T00:27:08;8.77;;;5.43;;
32872;SDS011;19224;52.462;16.898;2022-12-13T00:29:38;9.60;;;5.60;;
32872;SDS011;19224;52.462;16.898;2022-12-13T00:32:09;9.83;;;5.30;;
32872;SDS011;19224;52.462;16.898;2022-12-13T00:34:39;10.27;;;6.40;;
32872;SDS011;19224;52.462;16.898;2022-12-13T00:37:10;8.53;;;5.33;;
32872;SDS011;19224;52.462;16.898;2022-12-13T00:39:40;11.20;;;6.30;;
32872;SDS011;19224;52.462;16.898;2022-12-13T00:42:11;11.40;;;5.70;;
32872;SDS011;19224;52.462;16.898;2022-12-13T00:44:41;11.13;;;5.67;;
32872;SDS011;19224;52.462;16.898;2022-12-13T00:47:11;9.90;;;5.57;;
32872;SDS011;19224;52.462;16.898;2022-12-13T00:49:41;10.87;;;6.03;;
32872;SDS011;19224;52.462;16.898;2022-12-13T00:52:12;9.67;;;5.83;;
32872;SDS011;19224;52.462;16.898;2022-12-13T00:54:42;11.30;;;5.80;;
32872;SDS011;19224;52.462;16.898;2022-12-13T00:57:12;8.07;;;4.70;;
32872;SDS011;19224;52.462;16.898;2022-12-13T00:59:42;8.73;;;5.13;;
32872;SDS011;19224;52.462;16.898;2022-12-13T01:02:12;9.63;;;5.33;;
32872;SDS011;19224;52.462;16.898;2022-12-13T01:04:43;8.60;;;4.43;;
32872;SDS011;19224;52.462;16.898;2022-12-13T01:07:13;10.27;;;5.77;;
32872;SDS011;19224;52.462;16.898;2022-12-13T01:09:44;8.00;;;4.90;;
32872;SDS011;19224;52.462;16.898;2022-12-13T01:12:14;6.43;;;4.60;;
32872;SDS011;19224;52.462;16.898;2022-12-13T01:14:44;9.00;;;5.27;;
32872;SDS011;19224;52.462;16.898;2022-12-13T01:17:15;8.40;;;4.93;;
32872;SDS011;19224;52.462;16.898;2022-12-13T01:19:45;9.53;;;4.80;;
32872;SDS011;19224;52.462;16.898;2022-12-13T01:22:15;7.07;;;4.50;;
32872;SDS011;19224;52.462;16.898;2022-12-13T01:24:46;7.03;;;4.50;;
32872;SDS011;19224;52.462;16.898;2022-12-13T01:27:17;8.03;;;4.73;;
32872;SDS011;19224;52.462;16.898;2022-12-13T01:29:47;8.80;;;4.67;;
32872;SDS011;19224;52.462;16.898;2022-12-13T01:32:18;7.07;;;4.27;;
32872;SDS011;19224;52.462;16.898;2022-12-13T01:34:48;7.17;;;4.70;;
32872;SDS011;19224;52.462;16.898;2022-12-13T01:37:18;7.07;;;4.40;;
32872;SDS011;19224;52.462;16.898;2022-12-13T01:39:49;7.03;;;4.67;;
32872;SDS011;19224;52.462;16.898;2022-12-13T01:42:19;6.80;;;4.30;;
32872;SDS011;19224;52.462;16.898;2022-12-13T01:50:14;9.17;;;4.90;;
32872;SDS011;19224;52.462;16.898;2022-12-13T01:52:49;7.63;;;4.90;;
32872;SDS011;19224;52.462;16.898;2022-12-13T01:55:23;7.73;;;4.53;;
32872;SDS011;19224;52.462;16.898;2022-12-13T01:57:57;7.40;;;4.20;;
32872;SDS011;19224;52.462;16.898;2022-12-13T02:00:30;6.90;;;4.33;;
32872;SDS011;19224;52.462;16.898;2022-12-13T02:03:03;6.70;;;4.37;;
32872;SDS011;19224;52.462;16.898;2022-12-13T02:05:39;6.70;;;4.53;;
32872;SDS011;19224;52.462;16.898;2022-12-13T02:08:30;6.73;;;4.30;;
32872;SDS011;19224;52.462;16.898;2022-12-13T02:11:02;5.80;;;4.10;;
32872;SDS011;19224;52.462;16.898;2022-12-13T02:13:34;8.10;;;4.80;;
32872;SDS011;19224;52.462;16.898;2022-12-13T02:16:11;8.57;;;4.03;;
32872;SDS011;19224;52.462;16.898;2022-12-13T02:30:22;5.87;;;4.00;;
32872;SDS011;19224;52.462;16.898;2022-12-13T02:36:02;6.67;;;4.50;;
32872;SDS011;19224;52.462;16.898;2022-12-13T02:41:28;6.00;;;3.97;;
32872;SDS011;19224;52.462;16.898;2022-12-13T02:44:16;7.87;;;3.83;;
32872;SDS011;19224;52.462;16.898;2022-12-13T02:46:56;10.43;;;4.20;;
32872;SDS011;19224;52.462;16.898;2022-12-13T02:49:26;6.47;;;4.03;;
32872;SDS011;19224;52.462;16.898;2022-12-13T02:52:00;5.97;;;4.20;;
32872;SDS011;19224;52.462;16.898;2022-12-13T02:54:31;6.60;;;3.83;;
32872;SDS011;19224;52.462;16.898;2022-12-13T02:57:02;6.20;;;3.63;;
32872;SDS011;19224;52.462;16.898;2022-12-13T02:59:33;6.10;;;3.97;;
32872;SDS011;19224;52.462;16.898;2022-12-13T03:02:15;8.87;;;3.93;;
32872;SDS011;19224;52.462;16.898;2022-12-13T03:04:53;8.77;;;3.80;;
32872;SDS011;19224;52.462;16.898;2022-12-13T03:13:54;6.07;;;3.40;;
32872;SDS011;19224;52.462;16.898;2022-12-13T03:16:40;5.97;;;3.43;;
32872;SDS011;19224;52.462;16.898;2022-12-13T03:19:14;5.67;;;3.67;;
32872;SDS011;19224;52.462;16.898;2022-12-13T03:21:44;4.67;;;3.40;;
32872;SDS011;19224;52.462;16.898;2022-12-13T03:24:18;5.23;;;3.63;;
32872;SDS011;19224;52.462;16.898;2022-12-13T03:26:49;5.63;;;3.63;;
32872;SDS011;19224;52.462;16.898;2022-12-13T03:29:20;5.83;;;3.57;;
32872;SDS011;19224;52.462;16.898;2022-12-13T03:31:51;4.70;;;3.60;;
32872;SDS011;19224;52.462;16.898;2022-12-13T03:34:22;6.77;;;3.83;;
32872;SDS011;19224;52.462;16.898;2022-12-13T03:36:53;7.77;;;3.90;;
32872;SDS011;19224;52.462;16.898;2022-12-13T03:39:23;4.80;;;3.60;;
32872;SDS011;19224;52.462;16.898;2022-12-13T03:41:54;5.00;;;3.27;;
32872;SDS011;19224;52.462;16.898;2022-12-13T03:44:24;7.53;;;3.70;;
32872;SDS011;19224;52.462;16.898;2022-12-13T03:46:55;6.10;;;3.73;;
32872;SDS011;19224;52.462;16.898;2022-12-13T03:49:25;4.97;;;3.20;;
32872;SDS011;19224;52.462;16.898;2022-12-13T03:51:55;6.53;;;3.67;;
32872;SDS011;19224;52.462;16.898;2022-12-13T03:54:25;4.90;;;3.40;;
32872;SDS011;19224;52.462;16.898;2022-12-13T03:56:55;5.80;;;3.70;;
32872;SDS011;19224;52.462;16.898;2022-12-13T03:59:26;5.40;;;3.60;;
32872;SDS011;19224;52.462;16.898;2022-12-13T04:01:57;5.50;;;3.53;;
32872;SDS011;19224;52.462;16.898;2022-12-13T04:04:27;3.57;;;2.83;;
32872;SDS011;19224;52.462;16.898;2022-12-13T04:06:58;5.93;;;3.40;;
32872;SDS011;19224;52.462;16.898;2022-12-13T04:09:28;6.40;;;3.63;;
32872;SDS011;19224;52.462;16.898;2022-12-13T04:11:58;6.03;;;3.43;;
32872;SDS011;19224;52.462;16.898;2022-12-13T04:14:46;5.20;;;3.63;;
32872;SDS011;19224;52.462;16.898;2022-12-13T04:17:17;5.00;;;3.80;;
32872;SDS011;19224;52.462;16.898;2022-12-13T04:19:47;8.47;;;3.60;;
32872;SDS011;19224;52.462;16.898;2022-12-13T04:22:17;5.87;;;3.67;;
32872;SDS011;19224;52.462;16.898;2022-12-13T04:24:48;4.37;;;3.33;;
32872;SDS011;19224;52.462;16.898;2022-12-13T04:27:18;5.00;;;3.73;;
32872;SDS011;19224;52.462;16.898;2022-12-13T04:29:48;4.73;;;3.20;;
32872;SDS011;19224;52.462;16.898;2022-12-13T04:32:19;7.27;;;3.67;;
32872;SDS011;19224;52.462;16.898;2022-12-13T04:34:49;5.37;;;3.40;;
32872;SDS011;19224;52.462;16.898;2022-12-13T04:37:19;8.43;;;3.83;;
32872;SDS011;19224;52.462;16.898;2022-12-13T04:39:50;4.20;;;3.40;;
32872;SDS011;19224;52.462;16.898;2022-12-13T04:42:20;6.07;;;3.37;;
32872;SDS011;19224;52.462;16.898;2022-12-13T04:44:50;6.30;;;3.70;;
32872;SDS011;19224;52.462;16.898;2022-12-13T04:47:21;6.73;;;3.57;;
32872;SDS011;19224;52.462;16.898;2022-12-13T04:49:51;5.07;;;3.53;;
32872;SDS011;19224;52.462;16.898;2022-12-13T04:52:22;6.37;;;3.80;;
32872;SDS011;19224;52.462;16.898;2022-12-13T04:54:53;8.23;;;4.47;;
32872;SDS011;19224;52.462;16.898;2022-12-13T04:57:23;6.60;;;4.07;;
32872;SDS011;19224;52.462;16.898;2022-12-13T04:59:53;6.00;;;3.87;;
32872;SDS011;19224;52.462;16.898;2022-12-13T05:02:26;6.17;;;3.87;;
32872;SDS011;19224;52.462;16.898;2022-12-13T05:04:56;9.03;;;3.77;;
32872;SDS011;19224;52.462;16.898;2022-12-13T05:07:26;7.17;;;4.33;;
32872;SDS011;19224;52.462;16.898;2022-12-13T05:09:57;6.40;;;3.80;;
32872;SDS011;19224;52.462;16.898;2022-12-13T05:12:27;6.07;;;3.60;;
32872;SDS011;19224;52.462;16.898;2022-12-13T05:14:58;7.43;;;3.90;;
32872;SDS011;19224;52.462;16.898;2022-12-13T05:17:28;6.77;;;4.10;;
32872;SDS011;19224;52.462;16.898;2022-12-13T05:19:58;8.20;;;4.60;;
32872;SDS011;19224;52.462;16.898;2022-12-13T05:22:29;6.83;;;4.60;;
32872;SDS011;19224;52.462;16.898;2022-12-13T05:24:59;7.97;;;4.27;;
32872;SDS011;19224;52.462;16.898;2022-12-13T05:27:29;7.73;;;4.40;;
32872;SDS011;19224;52.462;16.898;2022-12-13T05:29:59;7.73;;;4.03;;
32872;SDS011;19224;52.462;16.898;2022-12-13T05:32:32;6.57;;;3.90;;
32872;SDS011;19224;52.462;16.898;2022-12-13T05:35:05;7.27;;;4.23;;
32872;SDS011;19224;52.462;16.898;2022-12-13T05:37:37;7.20;;;4.07;;
32872;SDS011;19224;52.462;16.898;2022-12-13T05:40:07;7.20;;;4.27;;
32872;SDS011;19224;52.462;16.898;2022-12-13T05:42:38;7.77;;;4.80;;
32872;SDS011;19224;52.462;16.898;2022-12-13T05:45:09;6.57;;;3.87;;
32872;SDS011;19224;52.462;16.898;2022-12-13T05:47:39;6.67;;;4.00;;
32872;SDS011;19224;52.462;16.898;2022-12-13T05:50:10;6.70;;;4.20;;
32872;SDS011;19224;52.462;16.898;2022-12-13T05:52:42;8.90;;;4.30;;
32872;SDS011;19224;52.462;16.898;2022-12-13T05:55:13;8.33;;;5.10;;
32872;SDS011;19224;52.462;16.898;2022-12-13T05:57:43;7.77;;;5.17;;
32872;SDS011;19224;52.462;16.898;2022-12-13T06:00:14;6.10;;;4.17;;
32872;SDS011;19224;52.462;16.898;2022-12-13T06:02:44;8.17;;;4.30;;
32872;SDS011;19224;52.462;16.898;2022-12-13T06:05:15;9.00;;;4.33;;
32872;SDS011;19224;52.462;16.898;2022-12-13T06:07:46;7.70;;;4.40;;
32872;SDS011;19224;52.462;16.898;2022-12-13T06:10:16;8.10;;;4.70;;
32872;SDS011;19224;52.462;16.898;2022-12-13T06:12:47;6.67;;;4.10;;
32872;SDS011;19224;52.462;16.898;2022-12-13T06:15:17;7.67;;;4.57;;
32872;SDS011;19224;52.462;16.898;2022-12-13T06:17:48;6.90;;;4.43;;
32872;SDS011;19224;52.462;16.898;2022-12-13T06:20:18;6.73;;;4.47;;
32872;SDS011;19224;52.462;16.898;2022-12-13T06:22:49;9.47;;;4.23;;
32872;SDS011;19224;52.462;16.898;2022-12-13T06:25:21;6.20;;;3.60;;
32872;SDS011;19224;52.462;16.898;2022-12-13T06:27:51;6.27;;;3.90;;
32872;SDS011;19224;52.462;16.898;2022-12-13T06:30:22;8.13;;;4.50;;
32872;SDS011;19224;52.462;16.898;2022-12-13T06:32:52;8.00;;;4.80;;
32872;SDS011;19224;52.462;16.898;2022-12-13T06:35:23;7.07;;;4.27;;
32872;SDS011;19224;52.462;16.898;2022-12-13T06:37:53;9.77;;;4.50;;
32872;SDS011;19224;52.462;16.898;2022-12-13T06:40:24;7.97;;;4.13;;
32872;SDS011;19224;52.462;16.898;2022-12-13T06:42:55;10.57;;;4.77;;
32872;SDS011;19224;52.462;16.898;2022-12-13T06:45:25;6.97;;;4.10;;
32872;SDS011;19224;52.462;16.898;2022-12-13T06:47:56;6.97;;;4.10;;
32872;SDS011;19224;52.462;16.898;2022-12-13T06:50:27;6.57;;;4.00;;
32872;SDS011;19224;52.462;16.898;2022-12-13T06:52:57;8.30;;;4.10;;
32872;SDS011;19224;52.462;16.898;2022-12-13T06:55:27;5.87;;;4.20;;
32872;SDS011;19224;52.462;16.898;2022-12-13T06:57:58;8.07;;;4.33;;
32872;SDS011;19224;52.462;16.898;2022-12-13T07:00:28;9.53;;;4.70;;
32872;SDS011;19224;52.462;16.898;2022-12-13T07:02:59;9.83;;;4.57;;
32872;SDS011;19224;52.462;16.898;2022-12-13T07:05:29;8.67;;;4.70;;
32872;SDS011;19224;52.462;16.898;2022-12-13T07:08:00;8.97;;;4.77;;
32872;SDS011;19224;52.462;16.898;2022-12-13T07:10:30;9.63;;;3.87;;
32872;SDS011;19224;52.462;16.898;2022-12-13T07:13:01;7.03;;;4.03;;
32872;SDS011;19224;52.462;16.898;2022-12-13T07:15:32;7.13;;;4.27;;
32872;SDS011;19224;52.462;16.898;2022-12-13T07:18:02;9.00;;;4.20;;
32872;SDS011;19224;52.462;16.898;2022-12-13T07:20:33;9.13;;;4.70;;
32872;SDS011;19224;52.462;16.898;2022-12-13T07:23:03;5.83;;;3.57;;
32872;SDS011;19224;52.462;16.898;2022-12-13T07:25:34;7.77;;;3.87;;
32872;SDS011;19224;52.462;16.898;2022-12-13T07:28:06;6.50;;;4.00;;
32872;SDS011;19224;52.462;16.898;2022-12-13T07:30:37;8.30;;;4.30;;
32872;SDS011;19224;52.462;16.898;2022-12-13T07:33:07;7.00;;;3.50;;
32872;SDS011;19224;52.462;16.898;2022-12-13T07:35:38;8.40;;;3.53;;
32872;SDS011;19224;52.462;16.898;2022-12-13T07:38:10;6.70;;;3.87;;
32872;SDS011;19224;52.462;16.898;2022-12-13T07:40:41;6.47;;;3.57;;
32872;SDS011;19224;52.462;16.898;2022-12-13T07:43:11;11.67;;;4.60;;
32872;SDS011;19224;52.462;16.898;2022-12-13T07:45:43;8.40;;;3.73;;
32872;SDS011;19224;52.462;16.898;2022-12-13T07:48:13;8.53;;;4.07;;
32872;SDS011;19224;52.462;16.898;2022-12-13T07:50:43;6.10;;;3.53;;
32872;SDS011;19224;52.462;16.898;2022-12-13T07:53:14;5.30;;;3.40;;
32872;SDS011;19224;52.462;16.898;2022-12-13T07:55:45;9.10;;;4.03;;
32872;SDS011;19224;52.462;16.898;2022-12-13T07:58:15;6.73;;;3.90;;
32872;SDS011;19224;52.462;16.898;2022-12-13T08:00:46;6.37;;;3.70;;
32872;SDS011;19224;52.462;16.898;2022-12-13T08:03:16;6.20;;;3.43;;
32872;SDS011;19224;52.462;16.898;2022-12-13T08:05:47;5.60;;;3.23;;
32872;SDS011;19224;52.462;16.898;2022-12-13T08:08:17;5.13;;;3.27;;
32872;SDS011;19224;52.462;16.898;2022-12-13T08:10:47;7.00;;;3.30;;
32872;SDS011;19224;52.462;16.898;2022-12-13T08:13:17;6.93;;;3.30;;
32872;SDS011;19224;52.462;16.898;2022-12-13T08:15:47;7.67;;;3.53;;
32872;SDS011;19224;52.462;16.898;2022-12-13T08:18:18;8.43;;;3.30;;
32872;SDS011;19224;52.462;16.898;2022-12-13T08:20:48;7.43;;;3.10;;
32872;SDS011;19224;52.462;16.898;2022-12-13T08:23:18;5.37;;;3.30;;
32872;SDS011;19224;52.462;16.898;2022-12-13T08:25:52;5.00;;;3.07;;
32872;SDS011;19224;52.462;16.898;2022-12-13T08:28:23;5.80;;;3.00;;
32872;SDS011;19224;52.462;16.898;2022-12-13T08:30:54;5.23;;;3.20;;
32872;SDS011;19224;52.462;16.898;2022-12-13T08:33:33;4.60;;;3.07;;
32872;SDS011;19224;52.462;16.898;2022-12-13T08:36:08;6.87;;;3.50;;
32872;SDS011;19224;52.462;16.898;2022-12-13T08:38:45;6.13;;;3.23;;
32872;SDS011;19224;52.462;16.898;2022-12-13T08:41:15;11.90;;;3.43;;
32872;SDS011;19224;52.462;16.898;2022-12-13T08:43:47;5.70;;;3.17;;
32872;SDS011;19224;52.462;16.898;2022-12-13T08:46:18;3.47;;;2.47;;
32872;SDS011;19224;52.462;16.898;2022-12-13T08:48:48;9.30;;;3.70;;
32872;SDS011;19224;52.462;16.898;2022-12-13T08:51:24;13.53;;;3.40;;
32872;SDS011;19224;52.462;16.898;2022-12-13T08:53:54;6.10;;;3.67;;
32872;SDS011;19224;52.462;16.898;2022-12-13T08:56:24;4.60;;;2.73;;
32872;SDS011;19224;52.462;16.898;2022-12-13T08:58:56;5.07;;;3.30;;
32872;SDS011;19224;52.462;16.898;2022-12-13T09:01:26;6.03;;;3.60;;
32872;SDS011;19224;52.462;16.898;2022-12-13T09:03:56;4.87;;;3.00;;
32872;SDS011;19224;52.462;16.898;2022-12-13T09:06:26;5.63;;;2.97;;
32872;SDS011;19224;52.462;16.898;2022-12-13T09:08:57;6.07;;;3.60;;
32872;SDS011;19224;52.462;16.898;2022-12-13T09:11:27;5.33;;;3.37;;
32872;SDS011;19224;52.462;16.898;2022-12-13T09:13:58;6.23;;;3.90;;
32872;SDS011;19224;52.462;16.898;2022-12-13T09:16:28;5.20;;;3.50;;
32872;SDS011;19224;52.462;16.898;2022-12-13T09:18:59;7.00;;;3.70;;
32872;SDS011;19224;52.462;16.898;2022-12-13T09:21:29;6.93;;;3.83;;
32872;SDS011;19224;52.462;16.898;2022-12-13T09:24:00;7.77;;;3.77;;
32872;SDS011;19224;52.462;16.898;2022-12-13T09:26:31;5.87;;;3.63;;
32872;SDS011;19224;52.462;16.898;2022-12-13T09:29:01;5.90;;;3.37;;
32872;SDS011;19224;52.462;16.898;2022-12-13T09:31:32;5.80;;;3.70;;
32872;SDS011;19224;52.462;16.898;2022-12-13T09:34:04;7.90;;;4.23;;
32872;SDS011;19224;52.462;16.898;2022-12-13T09:36:35;4.83;;;3.40;;
32872;SDS011;19224;52.462;16.898;2022-12-13T09:39:06;5.87;;;3.60;;
32872;SDS011;19224;52.462;16.898;2022-12-13T09:41:43;8.43;;;3.33;;
32872;SDS011;19224;52.462;16.898;2022-12-13T09:44:26;5.87;;;3.53;;
32872;SDS011;19224;52.462;16.898;2022-12-13T09:47:01;6.27;;;3.73;;
32872;SDS011;19224;52.462;16.898;2022-12-13T09:49:36;6.70;;;4.07;;
32872;SDS011;19224;52.462;16.898;2022-12-13T09:52:14;10.90;;;5.27;;
32872;SDS011;19224;52.462;16.898;2022-12-13T09:54:47;8.10;;;4.80;;
32872;SDS011;19224;52.462;16.898;2022-12-13T09:57:27;5.53;;;3.47;;
32872;SDS011;19224;52.462;16.898;2022-12-13T10:00:06;7.17;;;3.47;;
32872;SDS011;19224;52.462;16.898;2022-12-13T10:05:35;5.43;;;3.37;;
32872;SDS011;19224;52.462;16.898;2022-12-13T10:08:14;5.00;;;3.37;;
32872;SDS011;19224;52.462;16.898;2022-12-13T10:10:51;6.73;;;3.83;;
32872;SDS011;19224;52.462;16.898;2022-12-13T10:19:14;7.53;;;4.30;;
32872;SDS011;19224;52.462;16.898;2022-12-13T10:22:10;6.67;;;4.00;;
32872;SDS011;19224;52.462;16.898;2022-12-13T10:24:47;8.80;;;3.90;;
32872;SDS011;19224;52.462;16.898;2022-12-13T10:27:34;18.03;;;7.60;;
32872;SDS011;19224;52.462;16.898;2022-12-13T10:30:09;8.83;;;4.60;;
32872;SDS011;19224;52.462;16.898;2022-12-13T10:32:51;8.07;;;4.43;;
32872;SDS011;19224;52.462;16.898;2022-12-13T10:35:32;7.43;;;3.83;;
32872;SDS011;19224;52.462;16.898;2022-12-13T10:40:50;6.43;;;3.87;;
32872;SDS011;19224;52.462;16.898;2022-12-13T10:43:24;7.30;;;4.17;;
32872;SDS011;19224;52.462;16.898;2022-12-13T10:45:58;6.37;;;3.83;;
32872;SDS011;19224;52.462;16.898;2022-12-13T10:51:17;9.73;;;4.60;;
32872;SDS011;19224;52.462;16.898;2022-12-13T10:53:51;7.13;;;4.37;;
32872;SDS011;19224;52.462;16.898;2022-12-13T10:56:42;9.83;;;4.20;;
32872;SDS011;19224;52.462;16.898;2022-12-13T11:01:52;11.67;;;4.70;;
32872;SDS011;19224;52.462;16.898;2022-12-13T11:04:31;8.37;;;4.60;;
32872;SDS011;19224;52.462;16.898;2022-12-13T11:07:27;8.27;;;4.40;;
32872;SDS011;19224;52.462;16.898;2022-12-13T11:11:02;8.07;;;4.00;;
32872;SDS011;19224;52.462;16.898;2022-12-13T11:13:01;8.03;;;4.90;;
32872;SDS011;19224;52.462;16.898;2022-12-13T11:15:34;8.27;;;4.57;;
32872;SDS011;19224;52.462;16.898;2022-12-13T11:18:07;8.53;;;4.70;;
32872;SDS011;19224;52.462;16.898;2022-12-13T11:20:46;19.17;;;8.73;;
32872;SDS011;19224;52.462;16.898;2022-12-13T11:23:36;9.60;;;5.60;;
32872;SDS011;19224;52.462;16.898;2022-12-13T11:26:09;9.57;;;5.00;;
32872;SDS011;19224;52.462;16.898;2022-12-13T11:37:29;10.03;;;5.20;;
32872;SDS011;19224;52.462;16.898;2022-12-13T11:40:20;11.07;;;5.77;;
32872;SDS011;19224;52.462;16.898;2022-12-13T11:42:51;12.13;;;6.13;;
32872;SDS011;19224;52.462;16.898;2022-12-13T11:45:30;11.83;;;6.40;;
32872;SDS011;19224;52.462;16.898;2022-12-13T11:51:06;11.13;;;6.27;;
32872;SDS011;19224;52.462;16.898;2022-12-13T11:56:36;11.80;;;6.07;;
32872;SDS011;19224;52.462;16.898;2022-12-13T11:59:11;13.13;;;6.30;;
32872;SDS011;19224;52.462;16.898;2022-12-13T12:02:50;9.13;;;5.30;;
32872;SDS011;19224;52.462;16.898;2022-12-13T12:04:50;11.27;;;5.83;;
32872;SDS011;19224;52.462;16.898;2022-12-13T12:07:28;10.27;;;5.03;;
32872;SDS011;19224;52.462;16.898;2022-12-13T12:13:01;13.43;;;5.90;;
32872;SDS011;19224;52.462;16.898;2022-12-13T12:15:30;10.97;;;5.63;;
32872;SDS011;19224;52.462;16.898;2022-12-13T12:18:03;11.53;;;5.10;;
32872;SDS011;19224;52.462;16.898;2022-12-13T12:20:42;9.90;;;5.80;;
32872;SDS011;19224;52.462;16.898;2022-12-13T12:23:28;15.23;;;6.27;;
32872;SDS011;19224;52.462;16.898;2022-12-13T12:26:16;12.57;;;6.30;;
32872;SDS011;19224;52.462;16.898;2022-12-13T12:28:59;12.87;;;6.50;;
32872;SDS011;19224;52.462;16.898;2022-12-13T12:43:54;12.00;;;6.17;;
32872;SDS011;19224;52.462;16.898;2022-12-13T12:46:50;17.70;;;8.07;;
32872;SDS011;19224;52.462;16.898;2022-12-13T12:49:54;15.43;;;7.17;;
32872;SDS011;19224;52.462;16.898;2022-12-13T12:52:28;13.13;;;6.30;;
32872;SDS011;19224;52.462;16.898;2022-12-13T12:56:23;15.40;;;6.17;;
32872;SDS011;19224;52.462;16.898;2022-12-13T12:58:19;12.10;;;6.17;;
32872;SDS011;19224;52.462;16.898;2022-12-13T13:03:53;12.67;;;6.77;;
32872;SDS011;19224;52.462;16.898;2022-12-13T13:09:11;14.37;;;6.43;;
32872;SDS011;19224;52.462;16.898;2022-12-13T13:11:44;13.60;;;5.97;;
32872;SDS011;19224;52.462;16.898;2022-12-13T13:22:53;11.57;;;5.20;;
32872;SDS011;19224;52.462;16.898;2022-12-13T13:25:34;11.97;;;6.00;;
32872;SDS011;19224;52.462;16.898;2022-12-13T13:28:12;10.53;;;5.70;;
32872;SDS011;19224;52.462;16.898;2022-12-13T13:31:02;12.10;;;6.07;;
32872;SDS011;19224;52.462;16.898;2022-12-13T13:33:41;11.13;;;5.00;;
32872;SDS011;19224;52.462;16.898;2022-12-13T13:39:15;11.67;;;5.80;;
32872;SDS011;19224;52.462;16.898;2022-12-13T13:47:41;14.27;;;6.13;;
32872;SDS011;19224;52.462;16.898;2022-12-13T13:50:19;13.40;;;5.90;;
32872;SDS011;19224;52.462;16.898;2022-12-13T14:10:25;16.50;;;6.43;;
32872;SDS011;19224;52.462;16.898;2022-12-13T14:16:09;14.13;;;6.33;;
32872;SDS011;19224;52.462;16.898;2022-12-13T14:25:03;9.90;;;5.53;;
32872;SDS011;19224;52.462;16.898;2022-12-13T14:27:45;11.77;;;6.03;;
32872;SDS011;19224;52.462;16.898;2022-12-13T14:30:23;10.87;;;5.50;;
32872;SDS011;19224;52.462;16.898;2022-12-13T14:32:54;14.50;;;6.40;;
32872;SDS011;19224;52.462;16.898;2022-12-13T14:35:27;13.73;;;6.13;;
32872;SDS011;19224;52.462;16.898;2022-12-13T14:38:03;12.87;;;6.20;;
32872;SDS011;19224;52.462;16.898;2022-12-13T14:40:37;18.20;;;7.33;;
32872;SDS011;19224;52.462;16.898;2022-12-13T14:43:24;16.27;;;7.63;;
32872;SDS011;19224;52.462;16.898;2022-12-13T14:45:59;12.87;;;6.47;;
32872;SDS011;19224;52.462;16.898;2022-12-13T14:48:35;25.77;;;9.23;;
32872;SDS011;19224;52.462;16.898;2022-12-13T14:51:33;15.23;;;6.97;;
32872;SDS011;19224;52.462;16.898;2022-12-13T14:54:06;13.33;;;5.93;;
32872;SDS011;19224;52.462;16.898;2022-12-13T14:56:59;22.70;;;8.50;;
32872;SDS011;19224;52.462;16.898;2022-12-13T14:59:28;15.70;;;7.47;;
32872;SDS011;19224;52.462;16.898;2022-12-13T15:02:01;17.57;;;7.67;;
32872;SDS011;19224;52.462;16.898;2022-12-13T15:04:33;20.13;;;7.93;;
32872;SDS011;19224;52.462;16.898;2022-12-13T15:09:51;14.43;;;6.97;;
32872;SDS011;19224;52.462;16.898;2022-12-13T15:12:29;15.60;;;7.47;;
32872;SDS011;19224;52.462;16.898;2022-12-13T15:15:02;16.63;;;7.87;;
32872;SDS011;19224;52.462;16.898;2022-12-13T15:17:36;17.87;;;7.43;;
32872;SDS011;19224;52.462;16.898;2022-12-13T15:20:25;14.83;;;7.83;;
32872;SDS011;19224;52.462;16.898;2022-12-13T15:22:59;15.53;;;7.90;;
32872;SDS011;19224;52.462;16.898;2022-12-13T15:26:02;21.77;;;8.70;;
32872;SDS011;19224;52.462;16.898;2022-12-13T15:28:42;17.27;;;7.83;;
32872;SDS011;19224;52.462;16.898;2022-12-13T15:31:15;21.03;;;9.37;;
32872;SDS011;19224;52.462;16.898;2022-12-13T15:33:47;18.93;;;9.00;;
32872;SDS011;19224;52.462;16.898;2022-12-13T15:36:26;13.67;;;7.47;;
32872;SDS011;19224;52.462;16.898;2022-12-13T15:41:30;13.83;;;6.60;;
32872;SDS011;19224;52.462;16.898;2022-12-13T15:44:14;13.60;;;7.17;;
32872;SDS011;19224;52.462;16.898;2022-12-13T15:46:50;12.27;;;6.83;;
32872;SDS011;19224;52.462;16.898;2022-12-13T15:49:26;16.00;;;7.33;;
32872;SDS011;19224;52.462;16.898;2022-12-13T15:52:02;12.83;;;6.13;;
32872;SDS011;19224;52.462;16.898;2022-12-13T15:54:36;15.67;;;6.57;;
32872;SDS011;19224;52.462;16.898;2022-12-13T15:57:20;16.87;;;6.23;;
32872;SDS011;19224;52.462;16.898;2022-12-13T16:00:04;17.10;;;7.03;;
32872;SDS011;19224;52.462;16.898;2022-12-13T16:02:56;16.17;;;6.60;;
32872;SDS011;19224;52.462;16.898;2022-12-13T16:05:37;16.70;;;7.43;;
32872;SDS011;19224;52.462;16.898;2022-12-13T16:11:00;18.13;;;6.90;;
32872;SDS011;19224;52.462;16.898;2022-12-13T16:13:33;12.90;;;6.43;;
32872;SDS011;19224;52.462;16.898;2022-12-13T16:16:29;18.47;;;8.33;;
32872;SDS011;19224;52.462;16.898;2022-12-13T16:18:59;15.90;;;7.47;;
32872;SDS011;19224;52.462;16.898;2022-12-13T16:21:31;18.57;;;8.60;;
32872;SDS011;19224;52.462;16.898;2022-12-13T16:24:01;20.10;;;8.40;;
32872;SDS011;19224;52.462;16.898;2022-12-13T16:26:33;19.93;;;8.90;;
32872;SDS011;19224;52.462;16.898;2022-12-13T16:29:07;17.23;;;8.97;;
32872;SDS011;19224;52.462;16.898;2022-12-13T16:31:49;16.27;;;8.30;;
32872;SDS011;19224;52.462;16.898;2022-12-13T16:34:21;21.03;;;8.60;;
32872;SDS011;19224;52.462;16.898;2022-12-13T16:36:51;17.03;;;8.70;;
32872;SDS011;19224;52.462;16.898;2022-12-13T16:39:23;21.87;;;8.60;;
32872;SDS011;19224;52.462;16.898;2022-12-13T16:41:54;22.43;;;8.43;;
32872;SDS011;19224;52.462;16.898;2022-12-13T16:44:34;18.87;;;8.77;;
32872;SDS011;19224;52.462;16.898;2022-12-13T16:47:07;22.97;;;10.50;;
32872;SDS011;19224;52.462;16.898;2022-12-13T16:49:40;18.83;;;9.00;;
32872;SDS011;19224;52.462;16.898;2022-12-13T16:52:10;16.33;;;8.47;;
32872;SDS011;19224;52.462;16.898;2022-12-13T16:54:41;22.00;;;9.63;;
32872;SDS011;19224;52.462;16.898;2022-12-13T16:57:11;18.70;;;8.87;;
32872;SDS011;19224;52.462;16.898;2022-12-13T16:59:41;20.33;;;9.13;;
32872;SDS011;19224;52.462;16.898;2022-12-13T17:02:14;23.20;;;9.70;;
32872;SDS011;19224;52.462;16.898;2022-12-13T17:04:45;15.43;;;8.60;;
32872;SDS011;19224;52.462;16.898;2022-12-13T17:07:16;22.30;;;8.57;;
32872;SDS011;19224;52.462;16.898;2022-12-13T17:09:46;22.27;;;8.60;;
32872;SDS011;19224;52.462;16.898;2022-12-13T17:12:16;19.70;;;8.13;;
32872;SDS011;19224;52.462;16.898;2022-12-13T17:14:46;24.57;;;7.87;;
32872;SDS011;19224;52.462;16.898;2022-12-13T17:17:17;14.50;;;8.00;;
32872;SDS011;19224;52.462;16.898;2022-12-13T17:19:47;18.23;;;8.67;;
32872;SDS011;19224;52.462;16.898;2022-12-13T17:22:17;18.40;;;8.27;;
32872;SDS011;19224;52.462;16.898;2022-12-13T17:24:48;19.17;;;8.88;;